Time;durP1;ratioP1;P1;durP2;ratioP2;P2;SDS_P1;SDS_P2;PMS_P1;PMS_P2;Temp;Humidity;BMP_temperature;BMP_pressure;BME280_temperature;BME280_humidity;BME280_pressure;Samples;Min_cycle;Max_cycle;Signal;HPM_P1;HPM_P2
2021/07/28 00:01:48;;;;;;;44.25;23.20;;;14.90;99.90;;;;;;4187270;28;20051;-79
2021/07/28 00:03:50;;;;;;;39.03;22.85;;;14.80;99.90;;;;;;4191564;28;20133;-79
2021/07/28 00:05:51;;;;;;;42.28;24.63;;;14.70;99.90;;;;;;4196194;28;20060;-78
2021/07/28 00:07:52;;;;;;;46.03;25.27;;;14.70;99.90;;;;;;4193596;28;20048;-78
2021/07/28 00:09:54;;;;;;;45.25;24.23;;;14.70;99.90;;;;;;4196960;28;20040;-78
2021/07/28 00:11:54;;;;;;;40.72;23.67;;;14.80;99.90;;;;;;4195744;28;20078;-78
2021/07/28 00:13:55;;;;;;;45.38;24.80;;;14.70;99.90;;;;;;4197703;28;20028;-78
2021/07/28 00:15:56;;;;;;;47.08;25.70;;;14.70;99.90;;;;;;4193841;28;20056;-78
2021/07/28 00:18:01;;;;;;;55.80;25.55;;;14.70;99.90;;;;;;4196173;28;20040;-78
2021/07/28 00:20:06;;;;;;;40.00;23.92;;;14.70;99.90;;;;;;4190355;28;20041;-78
2021/07/28 00:24:31;;;;;;;48.50;26.10;;;14.60;99.90;;;;;;4211097;28;20034;-79
2021/07/28 00:26:31;;;;;;;48.95;24.02;;;14.60;99.90;;;;;;4213279;28;20047;-78
2021/07/28 00:28:34;;;;;;;40.33;23.27;;;14.60;99.90;;;;;;4194845;28;20032;-78
2021/07/28 00:30:35;;;;;;;44.10;24.83;;;14.60;99.90;;;;;;4213385;28;20043;-79
2021/07/28 00:32:37;;;;;;;51.72;26.42;;;14.60;99.90;;;;;;4195674;28;20040;-78
2021/07/28 00:34:37;;;;;;;53.67;26.35;;;14.60;99.90;;;;;;4194054;28;20063;-79
2021/07/28 00:36:40;;;;;;;44.85;26.50;;;14.50;99.90;;;;;;4194744;28;20051;-79
2021/07/28 00:38:41;;;;;;;45.05;25.40;;;14.60;99.90;;;;;;4207865;28;20067;-80
2021/07/28 00:40:45;;;;;;;48.55;26.58;;;14.50;99.90;;;;;;4195317;28;20033;-78
2021/07/28 00:42:46;;;;;;;50.25;28.00;;;14.60;99.90;;;;;;4194606;28;20115;-79
2021/07/28 00:44:47;;;;;;;53.70;28.63;;;14.60;99.90;;;;;;4194344;28;20040;-80
2021/07/28 00:46:49;;;;;;;50.30;27.88;;;14.60;99.90;;;;;;4196143;28;20039;-78
2021/07/28 00:48:51;;;;;;;45.67;27.00;;;14.50;99.90;;;;;;4196601;28;20020;-79
2021/07/28 00:50:55;;;;;;;55.90;28.35;;;14.50;99.90;;;;;;4214462;28;20031;-78
2021/07/28 00:53:04;;;;;;;53.13;27.27;;;14.50;99.90;;;;;;4191075;28;20100;-78
2021/07/28 00:55:06;;;;;;;58.58;27.55;;;14.40;99.90;;;;;;4190694;28;20457;-80
2021/07/28 00:57:08;;;;;;;51.95;29.10;;;14.40;99.90;;;;;;4194084;28;20086;-79
2021/07/28 00:59:15;;;;;;;52.50;27.70;;;14.50;99.90;;;;;;4211666;28;20395;-78
2021/07/28 01:01:17;;;;;;;56.58;28.55;;;14.40;99.90;;;;;;4187936;28;20431;-78
2021/07/28 01:03:19;;;;;;;62.45;29.70;;;14.50;99.90;;;;;;4193640;28;20074;-78
2021/07/28 01:05:21;;;;;;;56.92;29.38;;;14.40;99.90;;;;;;4214268;28;20021;-78
2021/07/28 01:07:22;;;;;;;54.30;29.67;;;14.40;99.90;;;;;;4199520;28;20447;-78
2021/07/28 01:09:28;;;;;;;54.85;28.92;;;14.50;99.90;;;;;;4218561;28;20024;-78
2021/07/28 01:11:29;;;;;;;61.95;29.65;;;14.40;99.90;;;;;;4210740;28;20417;-78
2021/07/28 01:13:31;;;;;;;67.25;29.75;;;14.40;99.90;;;;;;4191917;28;20021;-79
2021/07/28 01:15:32;;;;;;;57.30;29.45;;;14.30;99.90;;;;;;4191846;28;20134;-78
2021/07/28 01:17:33;;;;;;;62.58;28.98;;;14.30;99.90;;;;;;4195899;28;20029;-80
2021/07/28 01:19:43;;;;;;;53.78;29.20;;;14.30;99.90;;;;;;4211364;28;20116;-78
2021/07/28 01:21:44;;;;;;;58.05;30.45;;;14.30;99.90;;;;;;4194502;28;20104;-79
2021/07/28 01:23:46;;;;;;;65.38;31.13;;;14.20;99.90;;;;;;4193470;28;20048;-80
2021/07/28 01:25:50;;;;;;;61.40;29.97;;;14.30;99.90;;;;;;4193263;28;20091;-79
2021/07/28 01:27:51;;;;;;;57.45;31.10;;;14.30;99.90;;;;;;4195143;28;20025;-78
2021/07/28 01:29:53;;;;;;;60.55;30.23;;;14.40;99.90;;;;;;4194594;28;20033;-79
2021/07/28 01:31:54;;;;;;;66.95;32.17;;;14.40;99.90;;;;;;4194511;28;20044;-78
2021/07/28 01:33:55;;;;;;;68.45;31.73;;;14.30;99.90;;;;;;4193216;28;20033;-79
2021/07/28 01:35:59;;;;;;;60.88;31.65;;;14.20;99.90;;;;;;4197646;28;20040;-79
2021/07/28 01:38:00;;;;;;;71.03;33.80;;;14.30;99.90;;;;;;4191411;28;20392;-78
2021/07/28 01:40:02;;;;;;;69.03;33.30;;;14.30;99.90;;;;;;4187833;28;20028;-78
2021/07/28 01:42:03;;;;;;;66.47;32.83;;;14.20;99.90;;;;;;4190015;28;20047;-79
2021/07/28 01:44:06;;;;;;;71.35;35.42;;;14.30;99.90;;;;;;4194748;28;20029;-79
2021/07/28 01:46:07;;;;;;;73.28;34.17;;;14.30;99.90;;;;;;4195243;28;20044;-79
2021/07/28 01:48:08;;;;;;;66.05;31.10;;;14.40;99.90;;;;;;4194259;28;20406;-79
2021/07/28 01:50:10;;;;;;;70.70;34.28;;;14.40;99.90;;;;;;4193658;28;20047;-79
2021/07/28 01:52:11;;;;;;;67.15;33.33;;;14.40;99.90;;;;;;4186443;28;20036;-78
2021/07/28 01:54:15;;;;;;;75.75;34.25;;;14.50;99.90;;;;;;4194600;28;20036;-79
2021/07/28 01:56:17;;;;;;;68.55;33.55;;;14.50;99.90;;;;;;4192768;28;20125;-79
2021/07/28 01:58:20;;;;;;;65.90;30.40;;;14.50;99.90;;;;;;4193125;28;20453;-79
2021/07/28 02:00:21;;;;;;;73.00;31.92;;;14.50;99.90;;;;;;4192894;28;20649;-79
2021/07/28 02:02:22;;;;;;;57.67;30.85;;;14.60;99.90;;;;;;4195534;28;20518;-79
2021/07/28 02:04:28;;;;;;;58.25;30.52;;;14.60;99.90;;;;;;4193899;28;20033;-78
2021/07/28 02:06:35;;;;;;;58.63;28.52;;;14.70;99.90;;;;;;4192977;28;20463;-78
2021/07/28 02:08:36;;;;;;;65.53;30.02;;;14.70;99.90;;;;;;4196520;28;20066;-79
2021/07/28 02:10:42;;;;;;;63.20;30.33;;;14.80;99.90;;;;;;4194902;28;20040;-80
2021/07/28 02:12:43;;;;;;;62.92;30.80;;;14.80;99.90;;;;;;4191554;28;20120;-79
2021/07/28 02:14:43;;;;;;;61.47;29.33;;;14.70;99.90;;;;;;4195050;28;20090;-78
2021/07/28 02:16:47;;;;;;;67.22;31.17;;;14.70;99.90;;;;;;4194513;28;20032;-79
2021/07/28 02:18:49;;;;;;;62.42;29.90;;;14.70;99.90;;;;;;4195242;28;20039;-78
2021/07/28 02:20:51;;;;;;;65.40;30.40;;;14.70;99.90;;;;;;4188936;28;20056;-78
2021/07/28 02:22:51;;;;;;;55.97;29.35;;;14.80;99.90;;;;;;4207779;28;20421;-79
2021/07/28 02:24:52;;;;;;;57.60;29.45;;;14.80;99.90;;;;;;4213249;28;20047;-79
2021/07/28 02:26:59;;;;;;;60.90;30.05;;;14.80;99.90;;;;;;4209715;28;20052;-78
2021/07/28 02:28:59;;;;;;;68.60;30.77;;;14.90;99.90;;;;;;4214316;28;20508;-78
2021/07/28 02:31:00;;;;;;;53.97;28.42;;;14.80;99.90;;;;;;4214740;28;20039;-79
2021/07/28 02:33:07;;;;;;;58.05;28.92;;;14.80;99.90;;;;;;4196999;28;20039;-80
2021/07/28 02:35:09;;;;;;;60.40;28.58;;;14.80;99.90;;;;;;4195856;28;20534;-80
2021/07/28 02:37:16;;;;;;;63.53;31.05;;;14.80;99.90;;;;;;4197216;28;20051;-79
2021/07/28 02:39:16;;;;;;;58.25;29.15;;;14.90;99.90;;;;;;4192346;28;20036;-79
2021/07/28 02:41:18;;;;;;;63.63;30.23;;;14.90;99.90;;;;;;4213634;28;20075;-78
2021/07/28 02:43:19;;;;;;;61.38;30.05;;;15.00;99.90;;;;;;4195341;28;20045;-79
2021/07/28 02:45:21;;;;;;;57.53;29.25;;;14.90;99.90;;;;;;4194379;28;20475;-79
2021/07/28 02:47:34;;;;;;;57.60;29.65;;;14.90;99.90;;;;;;4194172;28;20040;-79
2021/07/28 02:49:34;;;;;;;59.00;30.13;;;14.90;99.90;;;;;;4212107;28;20517;-79
2021/07/28 02:51:38;;;;;;;61.28;29.30;;;14.90;99.90;;;;;;4214670;28;20032;-79
2021/07/28 02:53:39;;;;;;;63.60;30.15;;;14.90;99.90;;;;;;4197559;28;20067;-79
2021/07/28 02:55:44;;;;;;;57.33;29.65;;;14.80;99.90;;;;;;4214467;28;20036;-79
2021/07/28 02:57:51;;;;;;;63.20;31.25;;;14.90;99.90;;;;;;4215276;28;20495;-79
2021/07/28 03:00:04;;;;;;;65.97;30.08;;;14.90;99.90;;;;;;4197324;28;20025;-79
2021/07/28 03:02:05;;;;;;;60.15;29.58;;;14.90;99.90;;;;;;4197358;28;20044;-80
2021/07/28 03:04:05;;;;;;;62.10;30.88;;;14.80;99.90;;;;;;4197233;28;20495;-80
2021/07/28 03:06:06;;;;;;;63.75;30.02;;;14.80;99.90;;;;;;4215071;28;20645;-79
2021/07/28 03:08:06;;;;;;;67.07;30.27;;;14.70;99.90;;;;;;4202103;28;20399;-78
2021/07/28 03:10:09;;;;;;;59.22;31.15;;;14.70;99.90;;;;;;4201088;28;20856;-79
2021/07/28 03:12:09;;;;;;;71.70;31.83;;;14.80;99.90;;;;;;4210632;28;20024;-79
2021/07/28 03:14:10;;;;;;;72.35;32.75;;;14.80;99.90;;;;;;4215255;28;20036;-79
2021/07/28 03:16:11;;;;;;;78.40;33.40;;;14.90;99.90;;;;;;4196788;28;20051;-78
2021/07/28 03:18:18;;;;;;;64.35;30.67;;;14.90;99.90;;;;;;4212819;28;20036;-80
2021/07/28 03:20:19;;;;;;;56.42;29.25;;;14.90;99.90;;;;;;4195898;28;20076;-79
2021/07/28 03:22:19;;;;;;;65.53;30.85;;;14.90;99.90;;;;;;4192974;28;20049;-79
2021/07/28 03:24:20;;;;;;;59.92;30.50;;;14.90;99.90;;;;;;4213092;28;20117;-80
2021/07/28 03:26:28;;;;;;;62.42;28.70;;;15.00;99.90;;;;;;4195499;28;20456;-79
2021/07/28 03:28:29;;;;;;;59.13;27.45;;;14.90;99.90;;;;;;4195673;28;20024;-80
2021/07/28 03:30:38;;;;;;;65.20;29.30;;;15.10;99.90;;;;;;4194740;28;20040;-79
2021/07/28 03:32:40;;;;;;;54.60;28.15;;;15.10;99.90;;;;;;4206289;28;20047;-79
2021/07/28 03:34:47;;;;;;;51.30;26.00;;;15.20;99.90;;;;;;4191859;28;20086;-78
2021/07/28 03:36:48;;;;;;;51.63;25.67;;;15.20;99.90;;;;;;4191053;28;20107;-78
2021/07/28 03:38:50;;;;;;;53.85;26.65;;;15.30;99.90;;;;;;4211056;28;20540;-79
2021/07/28 03:40:53;;;;;;;59.22;27.73;;;15.30;99.90;;;;;;4195832;28;20040;-78
2021/07/28 03:42:53;;;;;;;48.90;26.65;;;15.30;99.90;;;;;;4194548;28;20043;-79
2021/07/28 03:44:54;;;;;;;49.17;27.17;;;15.30;99.90;;;;;;4212351;28;20024;-80
2021/07/28 03:46:58;;;;;;;52.70;26.85;;;15.40;99.90;;;;;;4194815;28;20040;-78
2021/07/28 03:48:59;;;;;;;56.97;26.38;;;15.30;99.90;;;;;;4210040;28;20032;-78
2021/07/28 03:51:09;;;;;;;53.88;25.92;;;15.40;99.90;;;;;;4197402;28;20066;-79
2021/07/28 03:53:10;;;;;;;55.63;27.40;;;15.40;99.90;;;;;;4212362;28;20051;-80
2021/07/28 03:55:11;;;;;;;49.80;25.67;;;15.40;99.90;;;;;;4194940;28;20028;-79
2021/07/28 03:57:12;;;;;;;44.88;24.70;;;15.40;99.90;;;;;;4195011;28;20044;-80
2021/07/28 03:59:13;;;;;;;51.75;27.70;;;15.50;99.90;;;;;;4197033;28;20123;-78
2021/07/28 04:01:13;;;;;;;51.85;26.25;;;15.50;99.90;;;;;;4196443;28;20033;-79
2021/07/28 04:03:19;;;;;;;51.65;25.55;;;15.50;99.90;;;;;;4212651;28;20028;-79
2021/07/28 04:05:22;;;;;;;53.67;25.23;;;15.50;99.90;;;;;;4210237;28;20123;-79
2021/07/28 04:07:22;;;;;;;54.42;26.65;;;15.50;99.90;;;;;;4212739;28;20036;-79
2021/07/28 04:09:23;;;;;;;51.92;26.83;;;15.60;99.90;;;;;;4195855;28;20070;-78
2021/07/28 04:11:28;;;;;;;53.53;25.90;;;15.60;99.90;;;;;;4212501;28;20016;-79
2021/07/28 04:13:28;;;;;;;54.60;26.92;;;15.60;99.90;;;;;;4211819;28;20032;-79
2021/07/28 04:15:29;;;;;;;54.03;27.23;;;15.60;99.90;;;;;;4214054;28;20020;-79
2021/07/28 04:17:30;;;;;;;53.08;27.40;;;15.60;99.90;;;;;;4208590;28;20701;-78
2021/07/28 04:19:31;;;;;;;45.83;25.58;;;15.70;99.90;;;;;;4188130;28;20041;-80
2021/07/28 04:21:31;;;;;;;58.70;27.00;;;15.70;99.90;;;;;;4147445;28;1342357;-80
2021/07/28 04:23:32;;;;;;;51.78;27.40;;;15.70;99.90;;;;;;4197302;28;20524;-80
2021/07/28 04:25:37;;;;;;;49.60;25.95;;;15.80;99.90;;;;;;4198268;28;20029;-79
2021/07/28 04:27:44;;;;;;;53.78;25.60;;;15.80;99.90;;;;;;4195572;28;20025;-79
2021/07/28 04:29:51;;;;;;;46.78;24.70;;;15.90;99.90;;;;;;4198107;28;20129;-78
2021/07/28 04:31:52;;;;;;;48.08;26.50;;;15.90;99.90;;;;;;4194575;28;20553;-79
2021/07/28 04:33:52;;;;;;;52.90;25.55;;;15.90;99.90;;;;;;4194813;28;20107;-79
2021/07/28 04:35:53;;;;;;;43.47;22.75;;;15.90;99.90;;;;;;4196020;28;20032;-79
2021/07/28 04:37:53;;;;;;;45.60;24.42;;;16.00;99.90;;;;;;4196776;28;20136;-79
2021/07/28 04:40:01;;;;;;;50.03;26.27;;;16.00;99.90;;;;;;4192983;28;20549;-80
2021/07/28 04:42:05;;;;;;;40.42;22.75;;;16.00;99.90;;;;;;4195803;28;20495;-80
2021/07/28 04:44:06;;;;;;;43.53;24.35;;;16.10;99.90;;;;;;4195298;28;21454;-79
2021/07/28 04:46:12;;;;;;;39.85;24.70;;;16.10;99.90;;;;;;4195038;28;20021;-80
2021/07/28 04:48:13;;;;;;;44.83;24.65;;;16.10;99.90;;;;;;4196222;28;20040;-79
2021/07/28 04:50:16;;;;;;;43.75;24.10;;;16.10;99.90;;;;;;4190843;28;20039;-79
2021/07/28 04:52:23;;;;;;;46.65;26.67;;;16.10;99.90;;;;;;4188379;28;20067;-80
2021/07/28 04:54:23;;;;;;;45.38;26.17;;;16.10;99.90;;;;;;4200170;28;20074;-79
2021/07/28 04:56:24;;;;;;;50.08;26.58;;;16.10;99.90;;;;;;4192585;28;20567;-79
2021/07/28 04:58:25;;;;;;;40.80;24.35;;;16.20;99.90;;;;;;4197470;28;20037;-82
2021/07/28 05:00:33;;;;;;;43.35;26.65;;;16.20;99.90;;;;;;4198036;28;20514;-80
2021/07/28 05:02:37;;;;;;;43.17;25.52;;;16.20;99.90;;;;;;4197380;28;20495;-79
2021/07/28 05:04:38;;;;;;;45.17;26.75;;;16.20;99.90;;;;;;4192587;28;20032;-79
2021/07/28 05:06:40;;;;;;;44.67;23.50;;;16.30;99.90;;;;;;4189673;28;20465;-81
2021/07/28 05:08:43;;;;;;;47.92;26.73;;;16.30;99.90;;;;;;4195168;28;20094;-79
2021/07/28 05:10:43;;;;;;;49.45;27.65;;;16.40;99.90;;;;;;4197196;28;20037;-79
2021/07/28 05:12:44;;;;;;;43.13;25.65;;;16.40;99.90;;;;;;4194601;28;20298;-78
2021/07/28 05:14:45;;;;;;;42.58;26.25;;;16.40;99.90;;;;;;4194953;28;20580;-79
2021/07/28 05:16:45;;;;;;;48.55;26.65;;;16.50;99.90;;;;;;4209275;28;20028;-79
2021/07/28 05:18:47;;;;;;;46.28;26.65;;;16.50;99.90;;;;;;4191183;28;20035;-81
2021/07/28 05:20:50;;;;;;;42.50;26.15;;;16.60;99.90;;;;;;4194572;28;20020;-79
2021/07/28 05:22:59;;;;;;;54.30;29.33;;;16.60;99.90;;;;;;4192446;28;20056;-79
2021/07/28 05:25:03;;;;;;;51.35;27.75;;;16.70;99.90;;;;;;4195532;28;20036;-80
2021/07/28 05:27:05;;;;;;;;;;;16.60;99.90;;;;;;4196432;28;20489;-79
2021/07/28 05:29:06;;;;;;;48.92;28.38;;;16.60;99.90;;;;;;4193941;28;19908;-79
2021/07/28 05:31:06;;;;;;;50.90;29.80;;;16.70;99.90;;;;;;4193133;28;20037;-79
2021/07/28 05:33:07;;;;;;;45.90;28.23;;;16.70;99.90;;;;;;4195274;28;20032;-78
2021/07/28 05:35:10;;;;;;;51.78;30.40;;;16.70;99.90;;;;;;4193951;28;20409;-79
2021/07/28 05:37:10;;;;;;;54.20;30.77;;;16.70;99.90;;;;;;4197521;28;20032;-78
2021/07/28 05:39:17;;;;;;;48.50;30.00;;;16.60;99.90;;;;;;4195139;28;20039;-79
2021/07/28 05:41:17;;;;;;;53.55;32.90;;;16.60;99.90;;;;;;4193876;28;20032;-78
2021/07/28 05:43:18;;;;;;;51.45;31.83;;;16.60;99.90;;;;;;4195823;28;20025;-79
2021/07/28 05:45:26;;;;;;;52.17;31.83;;;16.70;99.90;;;;;;4199878;28;20059;-79
2021/07/28 05:47:28;;;;;;;55.22;33.20;;;16.80;99.90;;;;;;4195377;28;20498;-80
2021/07/28 05:49:32;;;;;;;61.22;33.15;;;16.80;99.90;;;;;;4195496;28;20028;-78
2021/07/28 05:51:32;;;;;;;49.42;33.22;;;16.90;99.90;;;;;;4194284;28;20029;-79
2021/07/28 05:53:34;;;;;;;53.65;33.08;;;16.90;99.90;;;;;;4195366;28;20078;-79
2021/07/28 05:55:36;;;;;;;48.42;31.63;;;16.90;99.90;;;;;;4195760;28;20051;-79
2021/07/28 05:57:39;;;;;;;56.38;32.70;;;17.00;99.90;;;;;;4195194;28;20029;-80
2021/07/28 05:59:40;;;;;;;;;;;17.00;99.90;;;;;;4196836;28;20039;-79
2021/07/28 06:01:44;;;;;;;44.78;26.05;;;17.10;99.90;;;;;;4193561;28;19976;-82
2021/07/28 06:03:47;;;;;;;41.78;28.15;;;17.20;99.90;;;;;;4197802;28;20116;-80
2021/07/28 06:05:48;;;;;;;41.50;28.00;;;17.30;99.90;;;;;;4186052;28;20037;-79
2021/07/28 06:07:50;;;;;;;38.60;28.77;;;17.30;99.90;;;;;;4195285;28;20023;-79
2021/07/28 06:09:52;;;;;;;42.22;29.50;;;17.30;99.90;;;;;;4195108;28;20040;-79
2021/07/28 06:11:53;;;;;;;38.17;27.05;;;17.30;99.90;;;;;;4188651;28;20033;-80
2021/07/28 06:14:00;;;;;;;34.15;25.17;;;17.40;99.90;;;;;;4193857;28;20093;-80
2021/07/28 06:16:03;;;;;;;36.78;29.45;;;17.40;99.90;;;;;;4194116;28;20032;-81
2021/07/28 06:18:03;;;;;;;36.72;29.60;;;17.50;99.90;;;;;;4194429;28;20118;-81
2021/07/28 06:20:05;;;;;;;28.05;24.67;;;17.60;99.90;;;;;;4194393;28;20028;-81
2021/07/28 06:22:05;;;;;;;33.88;24.52;;;17.60;99.90;;;;;;4191601;28;20044;-80
2021/07/28 06:24:06;;;;;;;32.72;26.65;;;17.70;99.90;;;;;;4195733;28;20100;-79
2021/07/28 06:26:07;;;;;;;37.47;27.50;;;17.70;99.90;;;;;;4194715;28;20048;-79
2021/07/28 06:28:17;;;;;;;31.35;26.08;;;17.60;99.90;;;;;;4185776;28;20028;-80
2021/07/28 06:30:30;;;;;;;35.72;26.50;;;17.80;99.90;;;;;;4195996;28;20047;-80
2021/07/28 06:32:31;;;;;;;31.92;28.10;;;17.90;99.90;;;;;;4188946;28;20048;-78
2021/07/28 06:34:32;;;;;;;32.47;27.33;;;17.80;99.90;;;;;;4191622;28;20036;-79
2021/07/28 06:36:33;;;;;;;34.13;27.77;;;17.90;99.90;;;;;;4193085;28;20033;-79
2021/07/28 06:38:34;;;;;;;32.92;25.77;;;18.00;99.90;;;;;;4194906;28;20537;-79
2021/07/28 06:40:37;;;;;;;30.08;24.77;;;18.20;99.90;;;;;;4195824;28;20032;-79
2021/07/28 06:42:39;;;;;;;30.10;26.85;;;18.20;99.90;;;;;;4207090;28;20036;-80
2021/07/28 06:44:49;;;;;;;27.50;24.58;;;18.30;99.90;;;;;;4195748;28;20031;-81
2021/07/28 06:46:58;;;;;;;25.63;22.67;;;18.50;99.90;;;;;;4191272;28;20029;-79
2021/07/28 06:49:00;;;;;;;27.48;24.55;;;18.30;99.90;;;;;;4196890;28;20694;-80
2021/07/28 06:51:07;;;;;;;28.67;25.75;;;18.40;99.90;;;;;;4191951;28;20534;-81
2021/07/28 06:53:07;;;;;;;35.10;25.38;;;18.30;99.90;;;;;;4195825;28;20033;-80
2021/07/28 06:55:20;;;;;;;30.88;27.13;;;18.30;99.90;;;;;;4194643;28;20021;-80
2021/07/28 06:57:22;;;;;;;27.37;24.37;;;18.40;99.90;;;;;;4191454;28;20036;-79
2021/07/28 06:59:25;;;;;;;30.83;25.27;;;18.30;99.90;;;;;;4194374;28;20271;-79
2021/07/28 07:01:31;;;;;;;27.05;24.05;;;18.40;99.90;;;;;;4197192;28;20029;-79
2021/07/28 07:03:32;;;;;;;31.48;25.58;;;18.40;99.90;;;;;;4191615;28;20540;-78
2021/07/28 07:05:33;;;;;;;25.98;23.17;;;18.50;99.90;;;;;;4194024;28;20487;-78
2021/07/28 07:07:42;;;;;;;27.55;21.35;;;18.50;99.90;;;;;;4189342;28;20099;-82
2021/07/28 07:09:42;;;;;;;26.42;22.98;;;18.40;99.90;;;;;;4194360;28;20028;-80
2021/07/28 07:11:51;;;;;;;22.55;20.15;;;18.30;99.90;;;;;;4191211;28;20400;-80
2021/07/28 07:13:53;;;;;;;25.02;22.55;;;18.50;99.90;;;;;;4196426;28;20122;-79
2021/07/28 07:15:54;;;;;;;26.15;21.77;;;18.60;99.90;;;;;;4196751;28;20589;-80
2021/07/28 07:18:01;;;;;;;25.67;22.80;;;18.70;99.90;;;;;;4198933;28;20135;-81
2021/07/28 07:20:09;;;;;;;24.58;22.13;;;18.70;99.90;;;;;;4199207;28;20040;-81
2021/07/28 07:22:10;;;;;;;24.10;21.23;;;18.90;99.90;;;;;;4211766;28;20070;-81
2021/07/28 07:24:11;;;;;;;23.17;20.88;;;18.90;99.90;;;;;;4198219;28;20024;-82
2021/07/28 07:26:12;;;;;;;20.67;18.48;;;19.00;99.90;;;;;;4182737;28;20587;-81
2021/07/28 07:28:14;;;;;;;21.92;19.63;;;19.10;99.90;;;;;;4209217;28;20028;-82
2021/07/28 07:30:14;;;;;;;25.45;19.10;;;19.40;99.90;;;;;;4207681;28;20036;-81
2021/07/28 07:32:29;;;;;;;21.95;17.70;;;19.70;99.90;;;;;;4194610;28;20025;-80
2021/07/28 07:34:35;;;;;;;23.00;17.50;;;19.80;99.90;;;;;;4196927;28;20079;-79
2021/07/28 07:36:37;;;;;;;21.13;18.42;;;19.70;99.90;;;;;;4196293;28;20081;-80
2021/07/28 07:38:38;;;;;;;21.95;19.63;;;19.70;99.90;;;;;;4195122;28;20586;-81
2021/07/28 07:40:39;;;;;;;19.77;17.80;;;19.70;99.90;;;;;;4215856;28;20032;-80
2021/07/28 07:42:39;;;;;;;19.85;17.83;;;19.80;99.90;;;;;;4194708;28;20530;-79
2021/07/28 07:44:45;;;;;;;17.83;15.88;;;19.70;99.90;;;;;;4196683;28;20110;-84
2021/07/28 07:46:47;;;;;;;17.35;15.40;;;20.00;99.90;;;;;;4213603;28;20396;-83
2021/07/28 07:48:56;;;;;;;16.67;14.93;;;20.20;99.90;;;;;;4212420;28;20063;-83
2021/07/28 07:51:05;;;;;;;15.00;13.25;;;20.20;99.90;;;;;;4192875;28;20029;-81
2021/07/28 07:53:18;;;;;;;14.70;13.20;;;20.20;99.90;;;;;;4197341;28;20052;-82
2021/07/28 07:55:19;;;;;;;13.95;12.52;;;20.40;99.90;;;;;;4214155;28;20136;-81
2021/07/28 07:57:21;;;;;;;11.15;9.90;;;20.30;99.90;;;;;;4197155;28;20419;-81
2021/07/28 07:59:24;;;;;;;12.50;9.52;;;20.40;99.90;;;;;;4212171;28;20039;-80
2021/07/28 08:01:25;;;;;;;10.90;9.05;;;20.50;99.90;;;;;;4209506;28;20375;-82
2021/07/28 08:03:26;;;;;;;10.70;8.88;;;20.50;99.90;;;;;;4197619;28;20117;-80
2021/07/28 08:05:27;;;;;;;10.85;9.77;;;20.50;99.90;;;;;;4209811;28;20034;-80
2021/07/28 08:07:28;;;;;;;10.35;9.32;;;20.40;99.90;;;;;;4208304;28;20099;-79
2021/07/28 08:09:28;;;;;;;11.35;10.20;;;20.20;99.90;;;;;;4207670;28;20058;-80
2021/07/28 08:11:29;;;;;;;12.52;9.95;;;20.30;99.90;;;;;;4207069;28;20059;-79
2021/07/28 08:13:29;;;;;;;12.75;9.88;;;20.50;99.90;;;;;;4195678;28;20033;-80
2021/07/28 08:15:31;;;;;;;10.20;9.13;;;20.60;99.90;;;;;;4197282;28;20029;-80
2021/07/28 08:17:37;;;;;;;9.27;7.93;;;20.70;99.90;;;;;;4193699;28;20041;-78
2021/07/28 08:19:38;;;;;;;9.70;8.70;;;20.80;99.90;;;;;;4209709;28;20131;-79
2021/07/28 08:21:38;;;;;;;13.30;9.65;;;20.80;99.90;;;;;;4192514;28;20037;-80
2021/07/28 08:23:40;;;;;;;10.30;8.60;;;20.80;99.90;;;;;;4197355;28;20116;-79
2021/07/28 08:25:42;;;;;;;12.87;8.90;;;20.90;99.90;;;;;;4195593;28;20020;-79
2021/07/28 08:27:43;;;;;;;10.10;8.32;;;20.70;99.90;;;;;;4194371;28;20024;-79
2021/07/28 08:29:43;;;;;;;11.50;10.38;;;20.90;99.90;;;;;;4195200;28;20421;-78
2021/07/28 08:31:45;;;;;;;11.07;9.13;;;20.80;99.90;;;;;;4195871;28;20503;-78
2021/07/28 08:33:46;;;;;;;9.47;8.57;;;20.80;99.90;;;;;;4192366;28;20040;-78
2021/07/28 08:35:50;;;;;;;9.02;7.90;;;20.70;99.90;;;;;;4197513;28;20111;-78
2021/07/28 08:37:51;;;;;;;9.90;8.80;;;20.70;99.90;;;;;;4197487;28;20119;-78
2021/07/28 08:39:52;;;;;;;10.60;8.18;;;20.60;99.90;;;;;;4196740;28;20029;-77
2021/07/28 08:41:53;;;;;;;9.05;7.75;;;20.70;99.90;;;;;;4192570;28;20028;-79
2021/07/28 08:43:57;;;;;;;13.30;7.68;;;21.00;99.90;;;;;;4193745;28;20037;-78
2021/07/28 08:46:00;;;;;;;9.82;8.45;;;21.20;99.90;;;;;;4192326;28;20032;-78
2021/07/28 08:48:01;;;;;;;8.48;7.03;;;21.60;99.90;;;;;;4191611;28;20039;-79
2021/07/28 08:50:09;;;;;;;9.32;6.65;;;21.80;99.90;;;;;;4197130;28;20040;-78
2021/07/28 08:52:13;;;;;;;11.85;7.93;;;22.20;99.90;;;;;;4193947;28;20068;-79
2021/07/28 08:54:15;;;;;;;9.23;6.88;;;22.30;99.90;;;;;;4209244;28;20048;-78
2021/07/28 08:56:16;;;;;;;9.20;6.45;;;22.40;99.90;;;;;;4193876;28;20044;-79
2021/07/28 08:58:21;;;;;;;11.85;6.68;;;22.50;99.90;;;;;;4186628;28;20041;-79
2021/07/28 09:00:21;;;;;;;9.27;6.80;;;22.50;99.90;;;;;;4195495;28;20103;-79
2021/07/28 09:02:27;;;;;;;10.65;6.75;;;22.20;99.90;;;;;;4199427;28;20390;-78
2021/07/28 09:04:28;;;;;;;5.75;5.20;;;22.20;99.90;;;;;;4192322;28;20041;-77
2021/07/28 09:06:30;;;;;;;10.07;5.47;;;21.90;99.90;;;;;;4191243;28;20021;-77
2021/07/28 09:08:36;;;;;;;10.10;6.13;;;21.90;99.90;;;;;;4194391;28;20089;-77
2021/07/28 09:10:37;;;;;;;10.05;5.97;;;21.80;99.90;;;;;;4188406;28;20487;-77
2021/07/28 09:12:41;;;;;;;9.77;5.82;;;21.70;99.90;;;;;;4195067;28;20027;-78
2021/07/28 09:14:58;;;;;;;8.75;5.50;;;21.70;99.90;;;;;;4197270;28;20033;-77
2021/07/28 09:17:17;;;;;;;10.45;6.05;;;21.70;99.90;;;;;;4194114;28;20024;-78
2021/07/28 09:19:40;;;;;;;13.18;6.05;;;21.80;99.90;;;;;;4194640;28;20028;-79
2021/07/28 09:21:41;;;;;;;7.78;5.57;;;22.20;99.90;;;;;;4190715;28;20033;-78
2021/07/28 09:23:42;;;;;;;7.85;5.75;;;22.40;99.90;;;;;;4189866;28;20070;-78
2021/07/28 09:25:42;;;;;;;9.82;5.55;;;22.50;99.90;;;;;;4193123;28;20033;-78
2021/07/28 09:27:47;;;;;;;11.02;5.25;;;22.70;99.90;;;;;;4187998;28;20071;-77
2021/07/28 09:29:53;;;;;;;8.63;5.15;;;22.60;99.90;;;;;;4194709;28;20044;-77
2021/07/28 09:31:56;;;;;;;7.32;5.10;;;22.70;99.90;;;;;;4192402;28;20044;-77
2021/07/28 09:34:25;;;;;;;8.38;5.90;;;22.90;99.90;;;;;;4193084;28;20052;-77
2021/07/28 09:36:26;;;;;;;10.43;5.35;;;22.70;99.90;;;;;;4184052;28;20098;-78
2021/07/28 09:38:44;;;;;;;5.50;4.75;;;21.90;99.90;;;;;;4194317;28;20419;-78
2021/07/28 09:40:44;;;;;;;8.10;5.13;;;21.30;99.90;;;;;;4190372;28;20094;-76
2021/07/28 09:42:45;;;;;;;8.82;5.28;;;21.40;99.90;;;;;;4190844;28;20041;-77
2021/07/28 09:44:55;;;;;;;6.30;5.57;;;21.50;99.90;;;;;;4191147;28;20040;-76
2021/07/28 09:47:08;;;;;;;9.52;5.30;;;21.40;99.90;;;;;;4186712;28;20606;-77
2021/07/28 09:49:17;;;;;;;6.68;4.90;;;20.90;99.90;;;;;;4190805;28;20070;-77
2021/07/28 09:51:25;;;;;;;7.90;5.18;;;20.70;99.90;;;;;;4192396;28;20535;-77
2021/07/28 09:53:29;;;;;;;8.40;5.63;;;20.70;99.90;;;;;;4206523;28;20433;-76
2021/07/28 09:55:30;;;;;;;5.65;4.20;;;20.80;99.90;;;;;;4187637;28;20115;-77
2021/07/28 09:57:30;;;;;;;8.40;4.47;;;20.90;99.90;;;;;;4193702;28;20040;-76
2021/07/28 09:59:32;;;;;;;10.43;5.10;;;21.00;99.90;;;;;;4194180;28;20040;-76
2021/07/28 10:01:34;;;;;;;5.57;4.40;;;20.90;99.90;;;;;;4191544;28;20029;-77
2021/07/28 10:03:34;;;;;;;10.98;5.05;;;20.60;99.90;;;;;;4190000;28;20036;-75
2021/07/28 10:05:38;;;;;;;9.98;5.47;;;20.30;99.90;;;;;;4195320;28;20558;-76
2021/07/28 10:07:41;;;;;;;6.63;5.15;;;20.10;99.90;;;;;;4189379;28;20024;-76
2021/07/28 10:09:48;;;;;;;8.25;5.63;;;19.90;99.90;;;;;;4186565;28;20083;-76
2021/07/28 10:11:52;;;;;;;9.55;5.15;;;19.90;99.90;;;;;;4195559;28;20052;-76
2021/07/28 10:13:54;;;;;;;9.75;5.38;;;20.10;99.90;;;;;;4191999;28;20041;-76
2021/07/28 10:15:55;;;;;;;9.65;5.03;;;20.10;99.90;;;;;;4191795;28;20085;-75
2021/07/28 10:17:57;;;;;;;9.68;5.55;;;20.10;99.90;;;;;;4192285;28;20074;-76
2021/07/28 10:20:01;;;;;;;6.88;4.90;;;20.40;99.90;;;;;;4193878;28;20078;-77
2021/07/28 10:22:02;;;;;;;6.93;4.75;;;20.70;99.90;;;;;;4200547;28;20071;-77
2021/07/28 10:24:04;;;;;;;7.57;4.95;;;21.00;99.90;;;;;;4193774;28;20024;-76
2021/07/28 10:26:05;;;;;;;5.68;4.97;;;21.40;99.90;;;;;;4189586;28;20682;-76
2021/07/28 10:28:06;;;;;;;9.95;5.13;;;21.70;99.90;;;;;;4193571;28;20024;-77
2021/07/28 10:30:10;;;;;;;9.02;4.57;;;21.90;99.90;;;;;;4210211;28;20035;-79